createdAt,value
2023-04-14T00:01:36.387Z,94816.06
2023-04-14T00:06:38.730Z,94809.22
2023-04-14T00:11:41.135Z,94796.94
2023-04-14T00:16:43.963Z,94797.56
2023-04-14T00:21:46.325Z,94800.72
2023-04-14T00:26:48.630Z,94804.28
2023-04-14T00:31:50.920Z,94798.44
2023-04-14T00:36:53.350Z,94793.06
2023-04-14T00:41:57.757Z,94800.84
2023-04-14T00:47:00.554Z,94790.31
2023-04-14T00:52:03.218Z,94800.66
2023-04-14T00:57:05.843Z,94799.28
2023-04-14T01:02:18.306Z,94793.66
2023-04-14T01:07:20.708Z,94797.94
2023-04-14T01:12:24.679Z,94801.41
2023-04-14T01:17:28.043Z,94807.19
2023-04-14T01:22:30.432Z,94807.19
2023-04-14T01:27:33.574Z,94810.72
2023-04-14T01:32:46.068Z,94814.19
2023-04-14T01:37:49.229Z,94814.81
2023-04-14T01:42:54.254Z,94817.09
2023-04-14T01:47:57.057Z,94804.41
2023-04-14T01:52:59.432Z,94818.16
2023-04-14T01:58:02.111Z,94804.94
2023-04-14T02:03:04.903Z,94808.00
2023-04-14T02:08:07.660Z,94801.09
2023-04-14T02:13:10.581Z,94803.81
2023-04-14T02:18:22.992Z,94793.28
2023-04-14T02:23:28.320Z,94793.06
2023-04-14T02:28:31.803Z,94784.56
2023-04-14T02:33:35.003Z,94785.66
2023-04-14T02:38:37.568Z,94782.44
2023-04-14T02:43:40.755Z,94777.69
2023-04-14T02:48:43.209Z,94766.81
2023-04-14T02:53:45.816Z,94759.13
2023-04-14T02:58:48.233Z,94759.06
2023-04-14T03:03:51.392Z,94765.22
2023-04-14T03:08:54.700Z,94766.13
2023-04-14T03:13:57.029Z,94770.13
2023-04-14T03:18:59.756Z,94761.19
2023-04-14T03:24:02.370Z,94760.81
2023-04-14T03:29:04.675Z,94747.84
2023-04-14T03:34:06.967Z,94750.28
2023-04-14T03:39:09.613Z,94742.75
2023-04-14T03:44:15.799Z,94742.22
2023-04-14T03:49:18.656Z,94737.72
2023-04-14T03:54:21.899Z,94740.38
2023-04-14T03:59:24.609Z,94741.25
2023-04-14T04:04:27.952Z,94755.63
2023-04-14T04:09:30.487Z,94769.94
2023-04-14T04:14:33.310Z,94764.97
2023-04-14T04:19:35.712Z,94757.03
2023-04-14T04:24:38.329Z,94762.09
2023-04-14T04:29:41.056Z,94744.81
2023-04-14T04:34:43.440Z,94735.84
2023-04-14T04:39:48.029Z,94745.47
2023-04-14T04:44:52.067Z,94756.97
2023-04-14T04:49:55.348Z,94773.41
2023-04-14T04:54:58.632Z,94771.88
2023-04-14T05:00:01.804Z,94784.56
2023-04-14T05:05:05.094Z,94795.47
2023-04-14T05:10:09.201Z,94807.75
2023-04-14T05:15:12.138Z,94805.25
2023-04-14T05:20:15.590Z,94810.41
2023-04-14T05:25:18.769Z,94811.31
2023-04-14T05:30:21.269Z,94812.19
2023-04-14T05:35:25.291Z,94810.81
2023-04-14T05:40:28.345Z,94803.66
2023-04-14T05:45:31.576Z,94798.38
2023-04-14T05:50:34.882Z,94789.94
2023-04-14T05:55:38.012Z,94786.75
2023-04-14T06:00:42.843Z,94783.22
2023-04-14T06:05:48.192Z,94789.03
2023-04-14T06:10:50.725Z,94805.81
2023-04-14T06:15:54.983Z,94797.84
2023-04-14T06:20:57.534Z,94808.53
2023-04-14T06:26:00.230Z,94802.84
2023-04-14T06:31:02.817Z,94806.94
2023-04-14T06:36:05.605Z,94808.84
2023-04-14T06:41:07.949Z,94812.88
2023-04-14T06:46:12.110Z,94810.72
2023-04-14T06:51:15.096Z,94808.28
2023-04-14T06:56:17.781Z,94800.56
2023-04-14T07:01:22.531Z,94805.50
2023-04-14T07:06:25.459Z,94794.06
2023-04-14T07:11:30.106Z,94794.66
2023-04-14T07:16:33.622Z,94795.31
2023-04-14T07:21:37.798Z,94796.75
2023-04-14T07:26:40.908Z,94792.88
2023-04-14T07:31:44.445Z,94796.09
2023-04-14T07:36:47.138Z,94801.19
2023-04-14T07:41:50.824Z,94802.59
2023-04-14T07:46:54.486Z,94806.88
2023-04-14T07:51:58.187Z,94810.06
2023-04-14T07:57:02.512Z,94814.63
2023-04-14T08:02:06.944Z,94814.13
2023-04-14T08:07:09.704Z,94818.03
2023-04-14T08:12:12.251Z,94822.63
2023-04-14T08:17:15.728Z,94834.16
2023-04-14T08:22:18.606Z,94843.06
2023-04-14T08:27:21.414Z,94855.00
2023-04-14T08:32:24.296Z,94845.47
2023-04-14T08:37:30.956Z,94855.88
2023-04-14T08:42:42.733Z,94840.44
2023-04-14T08:47:46.804Z,94834.66
2023-04-14T08:52:51.485Z,94839.19
2023-04-14T08:57:55.854Z,94844.28
2023-04-14T09:03:00.818Z,94838.41
2023-04-14T09:08:06.335Z,94822.97
2023-04-14T09:13:11.600Z,94812.63
2023-04-14T09:18:14.850Z,94809.41
2023-04-14T09:23:18.262Z,94816.81
2023-04-14T09:28:22.271Z,94823.00
2023-04-14T09:33:26.692Z,94807.81
2023-04-14T09:38:31.765Z,94809.38
2023-04-14T09:43:34.913Z,94813.69
2023-04-14T09:48:38.097Z,94806.13
2023-04-14T09:53:51.825Z,94836.06
2023-04-14T09:59:03.221Z,94841.91
2023-04-14T10:04:11.149Z,94829.66
2023-04-14T10:09:16.194Z,94831.19
2023-04-14T10:14:24.665Z,94820.38
2023-04-14T10:19:34.044Z,94816.22
2023-04-14T10:24:38.833Z,94813.41
2023-04-14T10:29:46.008Z,94811.03
2023-04-14T10:34:54.200Z,94811.31
2023-04-14T10:39:58.749Z,94800.38
2023-04-14T10:45:06.556Z,94805.19
2023-04-14T10:50:09.886Z,94798.69
2023-04-14T10:55:18.520Z,94796.06
2023-04-14T11:00:23.571Z,94790.00
2023-04-14T11:05:27.157Z,94761.47
2023-04-14T11:10:30.938Z,94747.03
2023-04-14T11:15:35.497Z,94732.16
2023-04-14T11:20:38.668Z,94717.97
2023-04-14T11:25:43.169Z,94709.72
2023-04-14T11:30:46.255Z,94706.69
2023-04-14T11:35:50.743Z,94708.28
2023-04-14T11:40:54.217Z,94712.19
2023-04-14T11:46:02.302Z,94712.41
2023-04-14T11:51:10.970Z,94699.31
2023-04-14T11:56:15.228Z,94683.56
2023-04-14T12:01:20.144Z,94696.25
2023-04-14T12:06:24.996Z,94716.97
2023-04-14T12:11:29.454Z,94720.50
2023-04-14T12:16:36.546Z,94709.91
2023-04-14T12:21:39.938Z,94710.19
2023-04-14T12:26:44.892Z,94692.03
2023-04-14T12:31:49.765Z,94678.19
2023-04-14T12:36:53.576Z,94678.22
2023-04-14T12:42:04.496Z,94661.19
2023-04-14T12:47:08.493Z,94659.19
2023-04-14T12:52:14.163Z,94646.69
2023-04-14T12:57:17.652Z,94653.41
2023-04-14T13:02:25.179Z,94649.00
2023-04-14T13:07:29.081Z,94650.75
2023-04-14T13:12:42.335Z,94665.31
2023-04-14T13:17:44.994Z,94676.94
2023-04-14T13:22:49.822Z,94672.28
2023-04-14T13:27:54.498Z,94670.75
2023-04-14T13:32:59.047Z,94662.66
2023-04-14T13:38:05.146Z,94646.00
2023-04-14T13:43:17.567Z,94637.91
2023-04-14T13:48:20.397Z,94640.50
2023-04-14T13:53:26.050Z,94628.41
2023-04-14T13:58:40.310Z,94622.47
2023-04-14T14:03:45.612Z,94622.50
2023-04-14T14:08:51.482Z,94628.72
2023-04-14T14:13:54.905Z,94617.31
2023-04-14T14:19:02.234Z,94607.63
2023-04-14T14:24:07.316Z,94605.50
2023-04-14T14:29:13.193Z,94606.78
2023-04-14T14:34:17.301Z,94611.97
2023-04-14T14:39:22.200Z,94612.66
2023-04-14T14:44:27.486Z,94612.31
2023-04-14T14:49:29.865Z,94616.16
2023-04-14T14:54:34.335Z,94608.00
2023-04-14T14:59:37.833Z,94606.41
2023-04-14T15:10:01.685Z,94602.75
2023-04-14T15:15:21.884Z,94597.91
2023-04-14T15:20:39.340Z,94587.84
2023-04-14T15:25:55.169Z,94596.75
2023-04-14T15:30:58.807Z,94614.19
2023-04-14T15:36:02.734Z,94630.53
2023-04-14T15:41:13.963Z,94645.66
2023-04-14T15:46:18.291Z,94663.59
2023-04-14T15:51:26.524Z,94666.53
2023-04-14T15:56:31.283Z,94661.22
2023-04-14T16:01:38.634Z,94678.25
2023-04-14T16:06:44.706Z,94684.13
2023-04-14T16:11:51.688Z,94670.78
2023-04-14T16:16:55.750Z,94659.06
2023-04-14T16:22:00.269Z,94655.31
2023-04-14T16:27:03.520Z,94660.63
2023-04-14T16:32:07.745Z,94656.06
2023-04-14T16:37:19.946Z,94664.88
2023-04-14T16:42:25.743Z,94656.84
2023-04-14T16:47:30.580Z,94661.94
2023-04-14T16:52:37.090Z,94670.75
2023-04-14T16:57:54.006Z,94667.22
2023-04-14T17:02:59.889Z,94664.78
2023-04-14T17:08:06.892Z,94662.41
2023-04-14T17:13:22.690Z,94667.50
2023-04-14T17:18:26.157Z,94662.16
2023-04-14T17:23:29.506Z,94664.31
2023-04-14T17:28:38.734Z,94679.78
2023-04-14T17:33:43.018Z,94713.13
2023-04-14T17:38:46.776Z,94684.66
2023-04-14T17:43:54.183Z,94697.19
2023-04-14T17:48:57.827Z,94696.88
2023-04-14T17:54:01.821Z,94692.06
2023-04-14T17:59:05.633Z,94689.44
2023-04-14T18:04:09.271Z,94686.75
2023-04-14T18:09:14.140Z,94688.34
2023-04-14T18:14:17.743Z,94689.38
2023-04-14T18:19:21.460Z,94688.88
2023-04-14T18:29:33.297Z,94690.75
2023-04-14T18:34:41.039Z,94692.38
2023-04-14T18:39:45.621Z,94697.69
2023-04-14T18:44:49.902Z,94697.19
2023-04-14T18:49:54.077Z,94707.28
2023-04-14T18:55:05.445Z,94751.72
2023-04-14T19:00:09.270Z,94759.09
2023-04-14T19:05:19.824Z,94741.78
2023-04-14T19:10:25.944Z,94748.97
2023-04-14T19:15:31.182Z,94745.25
2023-04-14T19:20:38.557Z,94752.47
2023-04-14T19:25:41.924Z,94753.81
2023-04-14T19:30:46.623Z,94758.63
2023-04-14T19:35:53.768Z,94748.50
2023-04-14T19:40:59.142Z,94738.16
2023-04-14T19:46:05.768Z,94745.38
2023-04-14T19:51:09.053Z,94746.16
2023-04-14T19:56:15.944Z,94738.97
2023-04-14T20:01:22.586Z,94733.38
2023-04-14T20:06:27.505Z,94737.06
2023-04-14T20:11:32.031Z,94736.81
2023-04-14T20:16:36.078Z,94735.25
2023-04-14T20:21:47.524Z,94723.53
2023-04-14T20:26:51.977Z,94723.00
2023-04-14T20:31:56.182Z,94721.41
2023-04-14T20:37:05.787Z,94716.63
2023-04-14T20:42:09.820Z,94720.34
2023-04-14T20:47:15.189Z,94719.28
2023-04-14T20:52:19.848Z,94717.69
2023-04-14T20:57:24.599Z,94719.81
2023-04-14T21:02:28.867Z,94704.09
2023-04-14T21:07:33.982Z,94699.28
2023-04-14T21:15:24.833Z,94705.16
2023-04-14T21:18:02.748Z,94693.16
2023-04-14T21:23:06.511Z,94703.03
2023-04-14T21:28:10.825Z,94694.75
2023-04-14T21:33:14.869Z,94687.31
2023-04-14T21:38:20.886Z,94683.84
2023-04-14T21:43:24.728Z,94700.88
2023-04-14T21:48:29.111Z,94692.63
2023-04-14T21:53:33.304Z,94692.09
2023-04-14T21:58:37.013Z,94687.84
2023-04-14T22:03:40.421Z,94689.19
2023-04-14T22:08:43.883Z,94688.38
2023-04-14T22:13:54.797Z,94689.44
2023-04-14T22:18:58.031Z,94684.38
2023-04-14T22:24:01.477Z,94680.91
2023-04-14T22:29:04.577Z,94679.84
2023-04-14T22:34:10.010Z,94678.22
2023-04-14T22:39:26.351Z,94674.47
2023-04-14T22:44:31.591Z,94667.03
2023-04-14T22:49:35.291Z,94664.88
2023-04-14T22:54:39.182Z,94671.25
2023-04-14T22:59:44.931Z,94655.03
2023-04-14T23:04:52.715Z,94661.16
2023-04-14T23:09:57.688Z,94666.72
2023-04-14T23:15:00.980Z,94664.59
2023-04-14T23:20:09.819Z,94666.50
2023-04-14T23:25:13.773Z,94659.31
2023-04-14T23:30:17.908Z,94665.94
2023-04-14T23:35:22.429Z,94664.88
2023-04-14T23:40:27.030Z,94652.63
2023-04-14T23:45:37.136Z,94655.03
2023-04-14T23:51:01.403Z,94648.91
2023-04-14T23:56:04.898Z,94640.13
